sensor_id;sensor_type;location;lat;lon;timestamp;temperature;humidity
28947;DHT22;16052;50.930;5.326;2022-12-29T00:01:55;11.50;99.90
28947;DHT22;16052;50.930;5.326;2022-12-29T00:04:21;11.60;99.90
28947;DHT22;16052;50.930;5.326;2022-12-29T00:06:47;11.60;99.90
28947;DHT22;16052;50.930;5.326;2022-12-29T00:09:15;11.70;99.90
28947;DHT22;16052;50.930;5.326;2022-12-29T00:11:41;11.70;99.90
28947;DHT22;16052;50.930;5.326;2022-12-29T00:14:09;11.80;99.90
28947;DHT22;16052;50.930;5.326;2022-12-29T00:16:54;11.90;99.90
28947;DHT22;16052;50.930;5.326;2022-12-29T00:19:20;11.90;99.90
28947;DHT22;16052;50.930;5.326;2022-12-29T00:22:04;12.00;99.90
28947;DHT22;16052;50.930;5.326;2022-12-29T00:24:48;12.10;99.90
28947;DHT22;16052;50.930;5.326;2022-12-29T00:27:32;12.20;99.90
28947;DHT22;16052;50.930;5.326;2022-12-29T00:30:19;12.20;99.90
28947;DHT22;16052;50.930;5.326;2022-12-29T00:33:15;12.20;99.90
28947;DHT22;16052;50.930;5.326;2022-12-29T00:36:03;12.20;99.90
28947;DHT22;16052;50.930;5.326;2022-12-29T00:38:32;12.30;99.90
28947;DHT22;16052;50.930;5.326;2022-12-29T00:41:18;12.30;99.90
28947;DHT22;16052;50.930;5.326;2022-12-29T00:44:02;12.20;99.90
28947;DHT22;16052;50.930;5.326;2022-12-29T00:46:34;12.30;99.90
28947;DHT22;16052;50.930;5.326;2022-12-29T00:49:00;12.30;99.90
28947;DHT22;16052;50.930;5.326;2022-12-29T00:51:45;12.30;99.90
28947;DHT22;16052;50.930;5.326;2022-12-29T00:54:11;12.40;99.90
28947;DHT22;16052;50.930;5.326;2022-12-29T00:56:37;12.40;99.90
28947;DHT22;16052;50.930;5.326;2022-12-29T00:59:07;12.30;99.90
28947;DHT22;16052;50.930;5.326;2022-12-29T01:01:33;12.20;99.90
28947;DHT22;16052;50.930;5.326;2022-12-29T01:03:59;12.30;99.90
28947;DHT22;16052;50.930;5.326;2022-12-29T01:06:25;12.30;99.90
28947;DHT22;16052;50.930;5.326;2022-12-29T01:08:51;12.30;99.90
28947;DHT22;16052;50.930;5.326;2022-12-29T01:11:37;12.30;99.90
28947;DHT22;16052;50.930;5.326;2022-12-29T01:14:03;12.30;99.90
28947;DHT22;16052;50.930;5.326;2022-12-29T01:16:29;12.30;99.90
28947;DHT22;16052;50.930;5.326;2022-12-29T01:18:55;12.30;99.90
28947;DHT22;16052;50.930;5.326;2022-12-29T01:21:20;12.20;99.90
28947;DHT22;16052;50.930;5.326;2022-12-29T01:23:46;12.20;99.90
28947;DHT22;16052;50.930;5.326;2022-12-29T01:26:13;12.20;99.90
28947;DHT22;16052;50.930;5.326;2022-12-29T01:28:39;12.30;99.90
28947;DHT22;16052;50.930;5.326;2022-12-29T01:31:07;12.20;99.90
28947;DHT22;16052;50.930;5.326;2022-12-29T01:33:33;12.30;99.90
28947;DHT22;16052;50.930;5.326;2022-12-29T01:36:06;12.20;99.90
28947;DHT22;16052;50.930;5.326;2022-12-29T01:38:33;12.20;99.90
28947;DHT22;16052;50.930;5.326;2022-12-29T01:40:59;12.20;99.90
28947;DHT22;16052;50.930;5.326;2022-12-29T01:51:48;12.30;99.90
28947;DHT22;16052;50.930;5.326;2022-12-29T01:54:17;12.30;99.90
28947;DHT22;16052;50.930;5.326;2022-12-29T01:56:46;12.40;99.90
28947;DHT22;16052;50.930;5.326;2022-12-29T01:59:15;12.30;99.90
28947;DHT22;16052;50.930;5.326;2022-12-29T02:01:43;12.30;99.90
28947;DHT22;16052;50.930;5.326;2022-12-29T02:04:10;12.20;99.90
28947;DHT22;16052;50.930;5.326;2022-12-29T02:06:48;12.20;99.90
28947;DHT22;16052;50.930;5.326;2022-12-29T02:09:16;12.20;99.90
28947;DHT22;16052;50.930;5.326;2022-12-29T02:11:41;12.20;99.90
28947;DHT22;16052;50.930;5.326;2022-12-29T02:14:11;12.20;99.90
28947;DHT22;16052;50.930;5.326;2022-12-29T02:16:53;12.10;99.90
28947;DHT22;16052;50.930;5.326;2022-12-29T02:20:04;12.10;99.90
28947;DHT22;16052;50.930;5.326;2022-12-29T02:39:04;12.00;99.90
28947;DHT22;16052;50.930;5.326;2022-12-29T02:41:33;12.10;99.90
28947;DHT22;16052;50.930;5.326;2022-12-29T02:44:16;12.00;99.90
28947;DHT22;16052;50.930;5.326;2022-12-29T02:46:53;11.90;99.90
28947;DHT22;16052;50.930;5.326;2022-12-29T02:49:33;11.90;99.90
28947;DHT22;16052;50.930;5.326;2022-12-29T02:52:25;11.90;99.90
28947;DHT22;16052;50.930;5.326;2022-12-29T02:54:56;11.90;99.90
28947;DHT22;16052;50.930;5.326;2022-12-29T03:03:41;12.00;99.90
28947;DHT22;16052;50.930;5.326;2022-12-29T03:08:53;12.00;99.90
28947;DHT22;16052;50.930;5.326;2022-12-29T03:11:23;12.00;99.90
28947;DHT22;16052;50.930;5.326;2022-12-29T03:14:27;12.00;99.90
28947;DHT22;16052;50.930;5.326;2022-12-29T03:17:26;12.00;99.90
28947;DHT22;16052;50.930;5.326;2022-12-29T03:19:58;12.10;99.90
28947;DHT22;16052;50.930;5.326;2022-12-29T03:22:27;11.90;99.90
28947;DHT22;16052;50.930;5.326;2022-12-29T03:25:10;11.90;99.90
28947;DHT22;16052;50.930;5.326;2022-12-29T03:27:47;11.90;99.90
28947;DHT22;16052;50.930;5.326;2022-12-29T03:30:15;11.90;99.90
28947;DHT22;16052;50.930;5.326;2022-12-29T03:32:47;12.00;99.90
28947;DHT22;16052;50.930;5.326;2022-12-29T03:35:16;12.00;99.90
28947;DHT22;16052;50.930;5.326;2022-12-29T03:37:52;12.00;99.90
28947;DHT22;16052;50.930;5.326;2022-12-29T03:40:21;12.10;99.90
28947;DHT22;16052;50.930;5.326;2022-12-29T03:42:49;12.10;99.90
28947;DHT22;16052;50.930;5.326;2022-12-29T03:45:15;12.10;99.90
28947;DHT22;16052;50.930;5.326;2022-12-29T03:47:42;12.20;99.90
28947;DHT22;16052;50.930;5.326;2022-12-29T03:50:08;12.20;99.90
28947;DHT22;16052;50.930;5.326;2022-12-29T03:52:34;12.20;99.90
28947;DHT22;16052;50.930;5.326;2022-12-29T03:55:00;12.10;99.90
28947;DHT22;16052;50.930;5.326;2022-12-29T03:57:25;12.10;99.90
28947;DHT22;16052;50.930;5.326;2022-12-29T03:59:51;12.00;99.90
28947;DHT22;16052;50.930;5.326;2022-12-29T04:02:16;12.00;99.90
28947;DHT22;16052;50.930;5.326;2022-12-29T04:04:42;12.00;99.90
28947;DHT22;16052;50.930;5.326;2022-12-29T04:07:08;12.00;99.90
28947;DHT22;16052;50.930;5.326;2022-12-29T04:09:33;12.00;99.90
28947;DHT22;16052;50.930;5.326;2022-12-29T04:11:59;12.00;99.90
28947;DHT22;16052;50.930;5.326;2022-12-29T04:14:24;12.00;99.90
28947;DHT22;16052;50.930;5.326;2022-12-29T04:16:50;11.90;99.90
28947;DHT22;16052;50.930;5.326;2022-12-29T04:19:16;11.80;99.90
28947;DHT22;16052;50.930;5.326;2022-12-29T04:21:41;11.70;99.90
28947;DHT22;16052;50.930;5.326;2022-12-29T04:24:07;11.60;99.90
28947;DHT22;16052;50.930;5.326;2022-12-29T04:26:33;11.50;99.90
28947;DHT22;16052;50.930;5.326;2022-12-29T04:28:59;11.40;99.90
28947;DHT22;16052;50.930;5.326;2022-12-29T04:31:24;11.30;99.90
28947;DHT22;16052;50.930;5.326;2022-12-29T04:33:50;11.40;99.90
28947;DHT22;16052;50.930;5.326;2022-12-29T04:36:17;11.40;99.90
28947;DHT22;16052;50.930;5.326;2022-12-29T04:38:42;11.40;99.90
28947;DHT22;16052;50.930;5.326;2022-12-29T04:41:08;11.50;99.90
28947;DHT22;16052;50.930;5.326;2022-12-29T04:43:34;11.40;99.90
28947;DHT22;16052;50.930;5.326;2022-12-29T04:45:59;11.40;99.90
28947;DHT22;16052;50.930;5.326;2022-12-29T04:48:25;11.40;99.90
28947;DHT22;16052;50.930;5.326;2022-12-29T04:50:50;11.40;99.90
28947;DHT22;16052;50.930;5.326;2022-12-29T04:53:17;11.40;99.90
28947;DHT22;16052;50.930;5.326;2022-12-29T04:55:43;11.40;99.90
28947;DHT22;16052;50.930;5.326;2022-12-29T04:58:08;11.40;99.90
28947;DHT22;16052;50.930;5.326;2022-12-29T05:00:34;11.50;99.90
28947;DHT22;16052;50.930;5.326;2022-12-29T05:02:59;11.40;99.90
28947;DHT22;16052;50.930;5.326;2022-12-29T05:05:25;11.50;99.90
28947;DHT22;16052;50.930;5.326;2022-12-29T05:07:51;11.50;99.90
28947;DHT22;16052;50.930;5.326;2022-12-29T05:10:16;11.50;99.90
28947;DHT22;16052;50.930;5.326;2022-12-29T05:12:42;11.50;99.90
28947;DHT22;16052;50.930;5.326;2022-12-29T05:15:09;11.60;99.90
28947;DHT22;16052;50.930;5.326;2022-12-29T05:17:35;11.50;99.90
28947;DHT22;16052;50.930;5.326;2022-12-29T05:20:02;11.60;99.90
28947;DHT22;16052;50.930;5.326;2022-12-29T05:22:28;11.60;99.90
28947;DHT22;16052;50.930;5.326;2022-12-29T05:24:53;11.60;99.90
28947;DHT22;16052;50.930;5.326;2022-12-29T05:27:19;11.70;99.90
28947;DHT22;16052;50.930;5.326;2022-12-29T05:29:44;11.70;99.90
28947;DHT22;16052;50.930;5.326;2022-12-29T05:32:10;11.70;99.90
28947;DHT22;16052;50.930;5.326;2022-12-29T05:34:36;11.70;99.90
28947;DHT22;16052;50.930;5.326;2022-12-29T05:37:01;11.80;99.90
28947;DHT22;16052;50.930;5.326;2022-12-29T05:39:28;11.70;99.90
28947;DHT22;16052;50.930;5.326;2022-12-29T05:41:54;11.80;99.90
28947;DHT22;16052;50.930;5.326;2022-12-29T05:44:19;11.80;99.90
28947;DHT22;16052;50.930;5.326;2022-12-29T05:46:45;11.90;99.90
28947;DHT22;16052;50.930;5.326;2022-12-29T05:49:11;11.80;99.90
28947;DHT22;16052;50.930;5.326;2022-12-29T05:51:36;11.70;99.90
28947;DHT22;16052;50.930;5.326;2022-12-29T05:54:02;11.80;99.90
28947;DHT22;16052;50.930;5.326;2022-12-29T05:56:28;11.80;99.90
28947;DHT22;16052;50.930;5.326;2022-12-29T05:58:53;11.70;99.90
28947;DHT22;16052;50.930;5.326;2022-12-29T06:01:19;11.80;99.90
28947;DHT22;16052;50.930;5.326;2022-12-29T06:03:45;11.80;99.90
28947;DHT22;16052;50.930;5.326;2022-12-29T06:06:10;11.70;99.90
28947;DHT22;16052;50.930;5.326;2022-12-29T06:08:36;11.70;99.90
28947;DHT22;16052;50.930;5.326;2022-12-29T06:11:01;11.80;99.90
28947;DHT22;16052;50.930;5.326;2022-12-29T06:13:27;11.70;99.90
28947;DHT22;16052;50.930;5.326;2022-12-29T06:15:53;11.80;99.90
28947;DHT22;16052;50.930;5.326;2022-12-29T06:18:19;11.80;99.90
28947;DHT22;16052;50.930;5.326;2022-12-29T06:20:44;11.80;99.90
28947;DHT22;16052;50.930;5.326;2022-12-29T06:23:10;11.80;99.90
28947;DHT22;16052;50.930;5.326;2022-12-29T06:25:37;11.70;99.90
28947;DHT22;16052;50.930;5.326;2022-12-29T06:28:03;11.70;99.90
28947;DHT22;16052;50.930;5.326;2022-12-29T06:30:29;11.80;99.90
28947;DHT22;16052;50.930;5.326;2022-12-29T06:32:54;11.70;99.90
28947;DHT22;16052;50.930;5.326;2022-12-29T06:35:21;11.80;99.90
28947;DHT22;16052;50.930;5.326;2022-12-29T06:37:48;11.80;99.90
28947;DHT22;16052;50.930;5.326;2022-12-29T06:40:14;11.70;99.90
28947;DHT22;16052;50.930;5.326;2022-12-29T06:42:39;11.70;99.90
28947;DHT22;16052;50.930;5.326;2022-12-29T06:45:05;11.60;99.90
28947;DHT22;16052;50.930;5.326;2022-12-29T06:47:33;11.70;99.90
28947;DHT22;16052;50.930;5.326;2022-12-29T06:49:59;11.60;99.90
28947;DHT22;16052;50.930;5.326;2022-12-29T06:52:25;11.60;99.90
28947;DHT22;16052;50.930;5.326;2022-12-29T06:54:51;11.70;99.90
28947;DHT22;16052;50.930;5.326;2022-12-29T06:57:16;11.50;99.90
28947;DHT22;16052;50.930;5.326;2022-12-29T06:59:42;11.50;99.90
28947;DHT22;16052;50.930;5.326;2022-12-29T07:02:10;11.50;99.90
28947;DHT22;16052;50.930;5.326;2022-12-29T07:04:36;11.50;99.90
28947;DHT22;16052;50.930;5.326;2022-12-29T07:07:02;11.50;99.90
28947;DHT22;16052;50.930;5.326;2022-12-29T07:09:28;11.60;99.90
28947;DHT22;16052;50.930;5.326;2022-12-29T07:11:54;11.60;99.90
28947;DHT22;16052;50.930;5.326;2022-12-29T07:14:20;11.60;99.90
28947;DHT22;16052;50.930;5.326;2022-12-29T07:16:46;11.60;99.90
28947;DHT22;16052;50.930;5.326;2022-12-29T07:19:11;11.50;99.90
28947;DHT22;16052;50.930;5.326;2022-12-29T07:21:37;11.50;99.90
28947;DHT22;16052;50.930;5.326;2022-12-29T07:24:03;11.60;99.90
28947;DHT22;16052;50.930;5.326;2022-12-29T07:26:28;11.50;99.90
28947;DHT22;16052;50.930;5.326;2022-12-29T07:28:54;11.50;99.90
28947;DHT22;16052;50.930;5.326;2022-12-29T07:31:22;11.50;99.90
28947;DHT22;16052;50.930;5.326;2022-12-29T07:33:49;11.40;99.90
28947;DHT22;16052;50.930;5.326;2022-12-29T07:36:15;11.30;99.90
28947;DHT22;16052;50.930;5.326;2022-12-29T07:38:42;11.20;99.90
28947;DHT22;16052;50.930;5.326;2022-12-29T07:41:08;11.20;99.90
28947;DHT22;16052;50.930;5.326;2022-12-29T07:43:34;11.10;99.90
28947;DHT22;16052;50.930;5.326;2022-12-29T07:46:00;11.20;99.90
28947;DHT22;16052;50.930;5.326;2022-12-29T07:48:25;11.10;99.90
28947;DHT22;16052;50.930;5.326;2022-12-29T07:50:52;11.00;99.90
28947;DHT22;16052;50.930;5.326;2022-12-29T07:53:18;11.00;99.90
28947;DHT22;16052;50.930;5.326;2022-12-29T07:55:44;11.10;99.90
28947;DHT22;16052;50.930;5.326;2022-12-29T07:58:09;11.10;99.90
28947;DHT22;16052;50.930;5.326;2022-12-29T08:00:35;11.10;99.90
28947;DHT22;16052;50.930;5.326;2022-12-29T08:03:01;11.10;99.90
28947;DHT22;16052;50.930;5.326;2022-12-29T08:05:28;11.10;99.90
28947;DHT22;16052;50.930;5.326;2022-12-29T08:07:53;11.10;99.90
28947;DHT22;16052;50.930;5.326;2022-12-29T08:10:19;11.10;99.90
28947;DHT22;16052;50.930;5.326;2022-12-29T08:12:44;11.10;99.90
28947;DHT22;16052;50.930;5.326;2022-12-29T08:15:11;11.10;99.90
28947;DHT22;16052;50.930;5.326;2022-12-29T08:17:37;11.10;99.90
28947;DHT22;16052;50.930;5.326;2022-12-29T08:20:04;11.10;99.90
28947;DHT22;16052;50.930;5.326;2022-12-29T08:22:30;11.20;99.90
28947;DHT22;16052;50.930;5.326;2022-12-29T08:24:55;11.40;99.90
28947;DHT22;16052;50.930;5.326;2022-12-29T08:27:23;11.40;99.90
28947;DHT22;16052;50.930;5.326;2022-12-29T08:29:49;11.50;99.90
28947;DHT22;16052;50.930;5.326;2022-12-29T08:32:15;11.60;99.90
28947;DHT22;16052;50.930;5.326;2022-12-29T08:34:41;11.60;99.90
28947;DHT22;16052;50.930;5.326;2022-12-29T08:37:06;11.50;99.90
28947;DHT22;16052;50.930;5.326;2022-12-29T08:39:32;11.40;99.90
28947;DHT22;16052;50.930;5.326;2022-12-29T08:41:57;11.40;99.90
28947;DHT22;16052;50.930;5.326;2022-12-29T08:44:23;11.50;99.90
28947;DHT22;16052;50.930;5.326;2022-12-29T08:46:49;11.70;99.90
28947;DHT22;16052;50.930;5.326;2022-12-29T08:49:14;11.80;99.90
28947;DHT22;16052;50.930;5.326;2022-12-29T08:51:40;11.80;99.90
28947;DHT22;16052;50.930;5.326;2022-12-29T08:54:06;11.60;99.90
28947;DHT22;16052;50.930;5.326;2022-12-29T08:56:32;11.50;99.90
28947;DHT22;16052;50.930;5.326;2022-12-29T08:58:58;11.50;99.90
28947;DHT22;16052;50.930;5.326;2022-12-29T09:01:23;11.40;99.90
28947;DHT22;16052;50.930;5.326;2022-12-29T09:03:49;11.40;99.90
28947;DHT22;16052;50.930;5.326;2022-12-29T09:06:17;11.40;99.90
28947;DHT22;16052;50.930;5.326;2022-12-29T09:08:44;11.40;99.90
28947;DHT22;16052;50.930;5.326;2022-12-29T09:11:13;11.40;99.90
28947;DHT22;16052;50.930;5.326;2022-12-29T09:13:39;11.40;99.90
28947;DHT22;16052;50.930;5.326;2022-12-29T09:16:05;11.40;99.90
28947;DHT22;16052;50.930;5.326;2022-12-29T09:18:31;11.30;99.90
28947;DHT22;16052;50.930;5.326;2022-12-29T09:20:59;11.30;99.90
28947;DHT22;16052;50.930;5.326;2022-12-29T09:23:25;11.30;99.90
28947;DHT22;16052;50.930;5.326;2022-12-29T09:25:51;11.30;99.90
28947;DHT22;16052;50.930;5.326;2022-12-29T09:28:17;11.30;99.90
28947;DHT22;16052;50.930;5.326;2022-12-29T09:30:43;11.20;99.90
28947;DHT22;16052;50.930;5.326;2022-12-29T09:33:08;11.20;99.90
28947;DHT22;16052;50.930;5.326;2022-12-29T09:35:34;11.30;99.90
28947;DHT22;16052;50.930;5.326;2022-12-29T09:37:59;11.30;99.90
28947;DHT22;16052;50.930;5.326;2022-12-29T09:40:30;11.30;99.90
28947;DHT22;16052;50.930;5.326;2022-12-29T09:46:25;11.30;99.90
28947;DHT22;16052;50.930;5.326;2022-12-29T09:51:40;11.30;99.90
28947;DHT22;16052;50.930;5.326;2022-12-29T09:54:37;11.30;99.90
28947;DHT22;16052;50.930;5.326;2022-12-29T09:57:15;11.30;99.90
28947;DHT22;16052;50.930;5.326;2022-12-29T09:59:42;11.30;99.90
28947;DHT22;16052;50.930;5.326;2022-12-29T10:04:49;11.30;99.90
28947;DHT22;16052;50.930;5.326;2022-12-29T10:09:51;11.30;99.90
28947;DHT22;16052;50.930;5.326;2022-12-29T10:12:34;11.30;99.90
28947;DHT22;16052;50.930;5.326;2022-12-29T10:18:26;11.30;99.90
28947;DHT22;16052;50.930;5.326;2022-12-29T10:21:08;11.30;99.90
28947;DHT22;16052;50.930;5.326;2022-12-29T10:23:45;11.30;99.90
28947;DHT22;16052;50.930;5.326;2022-12-29T10:26:18;11.30;99.90
28947;DHT22;16052;50.930;5.326;2022-12-29T10:32:04;11.30;99.90
28947;DHT22;16052;50.930;5.326;2022-12-29T10:34:45;11.30;99.90
28947;DHT22;16052;50.930;5.326;2022-12-29T10:37:34;11.40;99.90
28947;DHT22;16052;50.930;5.326;2022-12-29T10:42:57;11.40;99.90
28947;DHT22;16052;50.930;5.326;2022-12-29T10:45:29;11.50;99.90
28947;DHT22;16052;50.930;5.326;2022-12-29T10:48:10;11.50;99.90
28947;DHT22;16052;50.930;5.326;2022-12-29T10:50:39;11.50;99.90
28947;DHT22;16052;50.930;5.326;2022-12-29T10:53:22;11.60;99.90
28947;DHT22;16052;50.930;5.326;2022-12-29T10:55:49;11.50;99.90
28947;DHT22;16052;50.930;5.326;2022-12-29T10:58:15;11.60;99.90
28947;DHT22;16052;50.930;5.326;2022-12-29T11:00:43;11.50;99.90
28947;DHT22;16052;50.930;5.326;2022-12-29T11:03:39;11.60;99.90
28947;DHT22;16052;50.930;5.326;2022-12-29T11:06:11;11.60;99.90
28947;DHT22;16052;50.930;5.326;2022-12-29T11:09:38;11.60;99.90
28947;DHT22;16052;50.930;5.326;2022-12-29T11:11:38;11.60;99.90
28947;DHT22;16052;50.930;5.326;2022-12-29T11:14:26;11.60;99.90
28947;DHT22;16052;50.930;5.326;2022-12-29T11:17:00;11.60;99.90
28947;DHT22;16052;50.930;5.326;2022-12-29T11:19:28;11.60;99.90
28947;DHT22;16052;50.930;5.326;2022-12-29T11:22:21;11.50;99.90
28947;DHT22;16052;50.930;5.326;2022-12-29T11:24:50;11.50;99.90
28947;DHT22;16052;50.930;5.326;2022-12-29T11:27:24;11.50;99.90
28947;DHT22;16052;50.930;5.326;2022-12-29T11:29:51;11.50;99.90
28947;DHT22;16052;50.930;5.326;2022-12-29T11:32:22;11.50;99.90
28947;DHT22;16052;50.930;5.326;2022-12-29T11:34:48;11.50;99.90
28947;DHT22;16052;50.930;5.326;2022-12-29T11:37:21;11.50;99.90
28947;DHT22;16052;50.930;5.326;2022-12-29T11:42:43;11.50;99.90
28947;DHT22;16052;50.930;5.326;2022-12-29T11:45:17;11.50;99.90
28947;DHT22;16052;50.930;5.326;2022-12-29T11:47:48;11.40;99.90
28947;DHT22;16052;50.930;5.326;2022-12-29T11:50:23;11.40;99.90
28947;DHT22;16052;50.930;5.326;2022-12-29T11:53:00;11.50;99.90
28947;DHT22;16052;50.930;5.326;2022-12-29T11:55:27;11.50;99.90
28947;DHT22;16052;50.930;5.326;2022-12-29T11:57:55;11.50;99.90
28947;DHT22;16052;50.930;5.326;2022-12-29T12:00:24;11.50;99.90
28947;DHT22;16052;50.930;5.326;2022-12-29T12:05:40;11.50;99.90
28947;DHT22;16052;50.930;5.326;2022-12-29T12:10:38;11.50;99.90
28947;DHT22;16052;50.930;5.326;2022-12-29T12:16:02;11.40;99.90
28947;DHT22;16052;50.930;5.326;2022-12-29T12:18:34;11.40;99.90
28947;DHT22;16052;50.930;5.326;2022-12-29T12:21:31;11.40;99.90
28947;DHT22;16052;50.930;5.326;2022-12-29T12:26:58;11.50;99.90
28947;DHT22;16052;50.930;5.326;2022-12-29T12:35:14;11.50;99.90
28947;DHT22;16052;50.930;5.326;2022-12-29T12:46:13;11.40;99.90
28947;DHT22;16052;50.930;5.326;2022-12-29T13:00:15;11.50;99.90
28947;DHT22;16052;50.930;5.326;2022-12-29T13:03:11;11.40;99.90
28947;DHT22;16052;50.930;5.326;2022-12-29T13:20:02;11.30;99.90
28947;DHT22;16052;50.930;5.326;2022-12-29T13:28:24;11.20;99.90
28947;DHT22;16052;50.930;5.326;2022-12-29T13:33:37;11.20;99.90
28947;DHT22;16052;50.930;5.326;2022-12-29T13:36:29;11.20;99.90
28947;DHT22;16052;50.930;5.326;2022-12-29T13:39:31;11.20;99.90
28947;DHT22;16052;50.930;5.326;2022-12-29T13:41:58;11.30;99.90
28947;DHT22;16052;50.930;5.326;2022-12-29T13:47:01;11.20;99.90
28947;DHT22;16052;50.930;5.326;2022-12-29T13:49:32;11.30;99.90
28947;DHT22;16052;50.930;5.326;2022-12-29T14:00:59;11.10;99.90
28947;DHT22;16052;50.930;5.326;2022-12-29T14:06:26;11.20;99.90
28947;DHT22;16052;50.930;5.326;2022-12-29T14:11:40;11.20;99.90
28947;DHT22;16052;50.930;5.326;2022-12-29T14:14:24;11.10;99.90
28947;DHT22;16052;50.930;5.326;2022-12-29T14:16:53;11.00;99.90
28947;DHT22;16052;50.930;5.326;2022-12-29T14:21:52;10.70;99.90
28947;DHT22;16052;50.930;5.326;2022-12-29T14:34:54;10.20;99.90
28947;DHT22;16052;50.930;5.326;2022-12-29T14:37:26;10.10;99.90
28947;DHT22;16052;50.930;5.326;2022-12-29T14:40:17;10.00;99.90
28947;DHT22;16052;50.930;5.326;2022-12-29T14:42:48;9.90;99.90
28947;DHT22;16052;50.930;5.326;2022-12-29T14:47:50;9.80;99.90
28947;DHT22;16052;50.930;5.326;2022-12-29T14:50:22;9.80;99.90
28947;DHT22;16052;50.930;5.326;2022-12-29T14:57:51;9.80;99.90
28947;DHT22;16052;50.930;5.326;2022-12-29T15:00:34;9.90;99.90
28947;DHT22;16052;50.930;5.326;2022-12-29T15:03:29;9.90;99.90
28947;DHT22;16052;50.930;5.326;2022-12-29T15:06:03;10.00;99.90
28947;DHT22;16052;50.930;5.326;2022-12-29T15:08:33;10.10;99.90
28947;DHT22;16052;50.930;5.326;2022-12-29T15:13:37;10.20;99.90
28947;DHT22;16052;50.930;5.326;2022-12-29T15:16:04;10.20;99.90
28947;DHT22;16052;50.930;5.326;2022-12-29T15:18:32;10.30;99.90
28947;DHT22;16052;50.930;5.326;2022-12-29T15:21:04;10.40;99.90
28947;DHT22;16052;50.930;5.326;2022-12-29T15:23:33;10.30;99.90
28947;DHT22;16052;50.930;5.326;2022-12-29T15:26:02;10.40;99.90
28947;DHT22;16052;50.930;5.326;2022-12-29T15:28:40;10.40;99.90
28947;DHT22;16052;50.930;5.326;2022-12-29T15:31:15;10.50;99.90
28947;DHT22;16052;50.930;5.326;2022-12-29T15:33:49;10.30;99.90
28947;DHT22;16052;50.930;5.326;2022-12-29T15:36:21;10.30;99.90
28947;DHT22;16052;50.930;5.326;2022-12-29T15:38:48;10.20;99.90
28947;DHT22;16052;50.930;5.326;2022-12-29T15:44:35;10.00;99.90
28947;DHT22;16052;50.930;5.326;2022-12-29T15:47:14;9.90;99.90
28947;DHT22;16052;50.930;5.326;2022-12-29T15:49:48;9.80;99.90
28947;DHT22;16052;50.930;5.326;2022-12-29T15:52:19;9.70;99.90
28947;DHT22;16052;50.930;5.326;2022-12-29T15:54:46;9.80;99.90
28947;DHT22;16052;50.930;5.326;2022-12-29T15:59:47;9.80;99.90
28947;DHT22;16052;50.930;5.326;2022-12-29T16:02:13;9.70;99.90
28947;DHT22;16052;50.930;5.326;2022-12-29T16:04:40;9.70;99.90
28947;DHT22;16052;50.930;5.326;2022-12-29T16:09:48;9.80;99.90
28947;DHT22;16052;50.930;5.326;2022-12-29T16:12:22;9.90;99.90
28947;DHT22;16052;50.930;5.326;2022-12-29T16:14:55;9.90;99.90
28947;DHT22;16052;50.930;5.326;2022-12-29T16:17:27;9.90;99.90
28947;DHT22;16052;50.930;5.326;2022-12-29T16:20:40;9.90;99.90
28947;DHT22;16052;50.930;5.326;2022-12-29T16:22:53;9.80;99.90
28947;DHT22;16052;50.930;5.326;2022-12-29T16:25:23;9.80;99.90
28947;DHT22;16052;50.930;5.326;2022-12-29T16:27:49;9.90;99.90
28947;DHT22;16052;50.930;5.326;2022-12-29T16:32:51;9.70;99.90
28947;DHT22;16052;50.930;5.326;2022-12-29T16:38:15;9.50;99.90
28947;DHT22;16052;50.930;5.326;2022-12-29T16:41:02;9.60;99.90
28947;DHT22;16052;50.930;5.326;2022-12-29T16:43:29;9.50;99.90
28947;DHT22;16052;50.930;5.326;2022-12-29T16:51:02;9.30;99.90
28947;DHT22;16052;50.930;5.326;2022-12-29T16:53:38;9.30;99.90
28947;DHT22;16052;50.930;5.326;2022-12-29T16:56:17;9.30;99.90
28947;DHT22;16052;50.930;5.326;2022-12-29T16:58:56;9.30;99.90
28947;DHT22;16052;50.930;5.326;2022-12-29T17:01:24;9.30;99.90
28947;DHT22;16052;50.930;5.326;2022-12-29T17:03:53;9.20;99.90
28947;DHT22;16052;50.930;5.326;2022-12-29T17:06:21;9.20;99.90
28947;DHT22;16052;50.930;5.326;2022-12-29T17:08:48;9.30;99.90
28947;DHT22;16052;50.930;5.326;2022-12-29T17:11:26;9.20;99.90
28947;DHT22;16052;50.930;5.326;2022-12-29T17:14:35;9.20;99.90
28947;DHT22;16052;50.930;5.326;2022-12-29T17:17:04;9.30;99.90
28947;DHT22;16052;50.930;5.326;2022-12-29T17:19:33;9.20;99.90
28947;DHT22;16052;50.930;5.326;2022-12-29T17:21:59;9.30;99.90
28947;DHT22;16052;50.930;5.326;2022-12-29T17:24:25;9.30;99.90
28947;DHT22;16052;50.930;5.326;2022-12-29T17:27:00;9.30;99.90
28947;DHT22;16052;50.930;5.326;2022-12-29T17:29:29;9.30;99.90
28947;DHT22;16052;50.930;5.326;2022-12-29T17:31:55;9.20;99.90
28947;DHT22;16052;50.930;5.326;2022-12-29T17:34:21;9.20;99.90
28947;DHT22;16052;50.930;5.326;2022-12-29T17:36:48;9.30;99.90
28947;DHT22;16052;50.930;5.326;2022-12-29T17:39:13;9.20;99.90
28947;DHT22;16052;50.930;5.326;2022-12-29T17:41:39;9.20;99.90
28947;DHT22;16052;50.930;5.326;2022-12-29T17:44:06;9.20;99.90
28947;DHT22;16052;50.930;5.326;2022-12-29T17:46:32;9.20;99.90
28947;DHT22;16052;50.930;5.326;2022-12-29T17:48:58;9.20;99.90
28947;DHT22;16052;50.930;5.326;2022-12-29T17:51:24;9.20;99.90
28947;DHT22;16052;50.930;5.326;2022-12-29T17:53:50;9.20;99.90
28947;DHT22;16052;50.930;5.326;2022-12-29T17:56:18;9.20;99.90
28947;DHT22;16052;50.930;5.326;2022-12-29T17:58:43;9.00;99.90
28947;DHT22;16052;50.930;5.326;2022-12-29T18:01:11;9.10;99.90
28947;DHT22;16052;50.930;5.326;2022-12-29T18:03:39;9.10;99.90
28947;DHT22;16052;50.930;5.326;2022-12-29T18:06:10;9.10;99.90
28947;DHT22;16052;50.930;5.326;2022-12-29T18:08:37;9.00;99.90
28947;DHT22;16052;50.930;5.326;2022-12-29T18:11:05;9.10;99.90
28947;DHT22;16052;50.930;5.326;2022-12-29T18:13:39;9.00;99.90
28947;DHT22;16052;50.930;5.326;2022-12-29T18:16:05;9.00;99.90
28947;DHT22;16052;50.930;5.326;2022-12-29T18:18:30;9.00;99.90
28947;DHT22;16052;50.930;5.326;2022-12-29T18:20:59;9.00;99.90
28947;DHT22;16052;50.930;5.326;2022-12-29T18:26:03;8.90;99.90
28947;DHT22;16052;50.930;5.326;2022-12-29T18:28:30;8.80;99.90
28947;DHT22;16052;50.930;5.326;2022-12-29T18:30:58;8.80;99.90
28947;DHT22;16052;50.930;5.326;2022-12-29T18:33:24;8.80;99.90
28947;DHT22;16052;50.930;5.326;2022-12-29T18:35:56;8.70;99.90
28947;DHT22;16052;50.930;5.326;2022-12-29T18:38:22;8.70;99.90
28947;DHT22;16052;50.930;5.326;2022-12-29T18:40:48;8.70;99.90
28947;DHT22;16052;50.930;5.326;2022-12-29T18:43:15;8.70;99.90
28947;DHT22;16052;50.930;5.326;2022-12-29T18:45:43;8.80;99.90
28947;DHT22;16052;50.930;5.326;2022-12-29T18:48:12;8.80;99.90
28947;DHT22;16052;50.930;5.326;2022-12-29T18:50:38;8.70;99.90
28947;DHT22;16052;50.930;5.326;2022-12-29T18:53:04;8.70;99.90